createdAt,value
2019-03-30T00:02:18.849Z,87.50
2019-03-30T00:04:48.778Z,87.90
2019-03-30T00:07:18.668Z,87.80
2019-03-30T00:09:48.480Z,87.80
2019-03-30T00:12:18.319Z,87.80
2019-03-30T00:14:50.521Z,87.70
2019-03-30T00:17:20.347Z,88.10
2019-03-30T00:19:50.575Z,88.10
2019-03-30T00:22:20.579Z,87.90
2019-03-30T00:24:50.363Z,87.90
2019-03-30T00:27:20.355Z,87.80
2019-03-30T00:29:50.562Z,87.90
2019-03-30T00:32:20.750Z,88.20
2019-03-30T00:34:50.585Z,88.40
2019-03-30T00:37:20.590Z,88.40
2019-03-30T00:39:50.495Z,88.80
2019-03-30T00:42:20.422Z,89.10
2019-03-30T00:44:50.233Z,89.60
2019-03-30T00:47:20.288Z,90.00
2019-03-30T00:49:50.336Z,90.10
2019-03-30T00:52:20.484Z,90.40
2019-03-30T00:54:50.341Z,90.30
2019-03-30T00:57:20.322Z,90.00
2019-03-30T00:59:50.324Z,89.90
2019-03-30T01:02:20.185Z,90.20
2019-03-30T01:04:50.214Z,90.10
2019-03-30T01:07:20.461Z,90.20
2019-03-30T01:09:50.495Z,90.20
2019-03-30T01:12:20.760Z,90.30
2019-03-30T01:14:50.585Z,90.40
2019-03-30T01:17:20.604Z,90.30
2019-03-30T01:20:02.195Z,90.40
2019-03-30T01:22:24.292Z,90.50
2019-03-30T01:24:54.327Z,90.70
2019-03-30T01:27:24.252Z,90.60
2019-03-30T01:29:54.225Z,90.60
2019-03-30T01:32:24.060Z,90.80
2019-03-30T01:34:54.002Z,90.70
2019-03-30T01:37:26.728Z,90.60
2019-03-30T01:39:56.480Z,90.50
2019-03-30T01:42:26.481Z,90.30
2019-03-30T01:44:56.526Z,90.30
2019-03-30T01:47:26.636Z,90.40
2019-03-30T01:49:56.492Z,90.50
2019-03-30T01:52:26.822Z,90.70
2019-03-30T01:54:56.893Z,90.70
2019-03-30T01:57:26.907Z,90.70
2019-03-30T01:59:57.894Z,90.80
2019-03-30T02:02:27.991Z,91.00
2019-03-30T02:04:57.833Z,91.00
2019-03-30T02:07:28.115Z,91.10
2019-03-30T02:09:57.990Z,91.20
2019-03-30T02:12:27.920Z,91.30
2019-03-30T02:14:57.824Z,91.30
2019-03-30T02:17:27.677Z,91.40
2019-03-30T02:19:57.520Z,91.40
2019-03-30T02:22:28.522Z,91.50
2019-03-30T02:24:58.518Z,91.40
2019-03-30T02:27:28.592Z,91.40
2019-03-30T02:29:59.738Z,91.20
2019-03-30T02:32:31.980Z,91.20
2019-03-30T02:35:01.782Z,91.50
2019-03-30T02:37:31.753Z,91.40
2019-03-30T02:40:01.657Z,91.50
2019-03-30T02:42:32.752Z,91.30
2019-03-30T02:45:02.670Z,91.60
2019-03-30T02:47:32.600Z,91.70
2019-03-30T02:50:02.694Z,91.70
2019-03-30T02:52:33.175Z,91.70
2019-03-30T02:55:03.062Z,91.50
2019-03-30T02:57:33.539Z,91.60
2019-03-30T03:00:04.254Z,91.60
2019-03-30T03:02:38.972Z,91.80
2019-03-30T03:05:09.933Z,91.90
2019-03-30T03:07:43.856Z,91.90
2019-03-30T03:10:14.962Z,91.90
2019-03-30T03:12:46.778Z,91.90
2019-03-30T03:15:16.737Z,92.20
2019-03-30T03:17:47.125Z,92.00
2019-03-30T03:20:17.396Z,92.20
2019-03-30T03:22:47.238Z,92.00
2019-03-30T03:25:18.308Z,91.90
2019-03-30T03:27:48.156Z,92.00
2019-03-30T03:30:19.440Z,92.10
2019-03-30T03:32:49.386Z,92.20
2019-03-30T03:35:19.214Z,92.10
2019-03-30T03:37:49.133Z,92.00
2019-03-30T03:40:19.384Z,92.00
2019-03-30T03:42:49.339Z,92.10
2019-03-30T03:45:19.132Z,92.00
2019-03-30T03:47:49.115Z,91.90
2019-03-30T03:50:48.687Z,91.90
2019-03-30T03:53:18.514Z,92.20
2019-03-30T03:55:50.158Z,92.30
2019-03-30T03:58:21.580Z,92.50
2019-03-30T04:00:53.847Z,92.50
2019-03-30T04:03:26.636Z,92.50
2019-03-30T04:05:59.115Z,92.40
2019-03-30T04:08:31.711Z,92.60
2019-03-30T04:11:02.645Z,92.60
2019-03-30T04:13:32.641Z,92.50
2019-03-30T04:16:02.658Z,92.70
2019-03-30T04:18:32.573Z,92.70
2019-03-30T04:21:02.494Z,92.80
2019-03-30T04:23:32.614Z,92.70
2019-03-30T04:26:02.578Z,92.80
2019-03-30T04:28:32.605Z,92.80
2019-03-30T04:31:02.420Z,92.60
2019-03-30T04:33:32.335Z,92.70
2019-03-30T04:36:02.280Z,92.70
2019-03-30T04:38:32.114Z,92.90
2019-03-30T04:41:02.087Z,92.70
2019-03-30T04:43:33.799Z,92.80
2019-03-30T04:46:03.791Z,92.90
2019-03-30T04:48:34.111Z,92.80
2019-03-30T04:51:03.946Z,92.90
2019-03-30T04:53:34.058Z,92.70
2019-03-30T04:56:04.498Z,92.70
2019-03-30T04:58:35.822Z,92.60
2019-03-30T05:01:05.689Z,92.40
2019-03-30T05:03:35.561Z,92.30
2019-03-30T05:06:05.386Z,92.30
2019-03-30T05:08:35.449Z,92.30
2019-03-30T05:11:05.389Z,92.20
2019-03-30T05:13:35.294Z,92.10
2019-03-30T05:16:05.147Z,91.80
2019-03-30T05:18:35.044Z,92.00
2019-03-30T05:21:06.727Z,91.60
2019-03-30T05:23:40.167Z,91.40
2019-03-30T05:26:10.171Z,91.40
2019-03-30T05:28:42.814Z,91.40
2019-03-30T05:31:12.842Z,91.40
2019-03-30T05:33:45.102Z,91.40
2019-03-30T05:36:15.141Z,91.20
2019-03-30T05:38:47.487Z,91.10
2019-03-30T05:41:17.470Z,91.00
2019-03-30T05:43:48.618Z,90.70
2019-03-30T05:46:18.569Z,90.70
2019-03-30T05:48:48.453Z,90.50
2019-03-30T05:51:18.402Z,90.20
2019-03-30T05:53:48.229Z,89.80
2019-03-30T05:56:18.186Z,89.70
2019-03-30T05:58:50.149Z,88.80
2019-03-30T06:01:21.084Z,88.90
2019-03-30T06:03:50.899Z,88.50
2019-03-30T06:06:20.905Z,87.50
2019-03-30T06:08:50.782Z,87.00
2019-03-30T06:11:20.659Z,86.40
2019-03-30T06:13:50.584Z,86.00
2019-03-30T06:16:20.621Z,85.30
2019-03-30T06:18:50.630Z,84.80
2019-03-30T06:21:21.481Z,84.60
2019-03-30T06:23:51.327Z,84.30
2019-03-30T06:26:21.282Z,83.90
2019-03-30T06:28:51.199Z,83.20
2019-03-30T06:31:21.194Z,82.80
2019-03-30T06:33:51.202Z,82.10
2019-03-30T06:36:21.006Z,81.10
2019-03-30T06:38:52.007Z,80.70
2019-03-30T06:41:21.922Z,80.10
2019-03-30T06:43:51.920Z,79.40
2019-03-30T06:46:21.750Z,79.30
2019-03-30T06:48:51.553Z,78.80
2019-03-30T06:51:21.542Z,77.50
2019-03-30T06:53:51.481Z,76.70
2019-03-30T06:56:21.730Z,74.10
2019-03-30T06:58:51.757Z,70.70
2019-03-30T07:01:21.975Z,58.70
2019-03-30T07:03:52.008Z,52.10
2019-03-30T07:06:22.208Z,49.00
2019-03-30T07:08:55.130Z,44.80
2019-03-30T07:11:27.578Z,43.00
2019-03-30T07:14:00.689Z,40.50
2019-03-30T07:16:34.423Z,40.50
2019-03-30T07:19:05.597Z,39.00
2019-03-30T07:21:35.464Z,39.20
2019-03-30T07:24:05.361Z,39.00
2019-03-30T07:26:36.109Z,38.30
2019-03-30T07:29:06.073Z,36.60
2019-03-30T07:31:36.008Z,37.30
2019-03-30T07:34:06.007Z,36.70
2019-03-30T07:36:35.805Z,35.70
2019-03-30T07:39:09.200Z,36.00
2019-03-30T07:41:39.663Z,34.90
2019-03-30T07:44:11.800Z,34.80
2019-03-30T07:46:41.811Z,34.90
2019-03-30T07:49:11.705Z,34.80
2019-03-30T07:51:43.727Z,35.10
2019-03-30T07:54:15.101Z,35.10
2019-03-30T07:56:48.158Z,34.90
2019-03-30T07:59:18.083Z,33.60
2019-03-30T08:01:49.182Z,33.40
2019-03-30T08:04:19.080Z,33.00
2019-03-30T08:06:49.044Z,32.20
2019-03-30T08:09:19.277Z,31.50
2019-03-30T08:11:49.348Z,31.30
2019-03-30T08:14:19.380Z,31.10
2019-03-30T08:16:49.250Z,31.00
2019-03-30T08:19:21.793Z,31.50
2019-03-30T17:35:31.037Z,44.20
2019-03-30T17:38:03.437Z,45.00
2019-03-30T17:40:33.504Z,45.20
2019-03-30T17:43:03.382Z,45.10
2019-03-30T17:45:33.555Z,46.00
2019-03-30T17:48:03.559Z,45.20
2019-03-30T17:50:33.953Z,45.50
2019-03-30T17:53:04.304Z,45.90
2019-03-30T17:55:34.456Z,45.90
2019-03-30T17:58:12.842Z,45.90
2019-03-30T18:00:37.735Z,45.70
2019-03-30T18:03:08.919Z,45.60
2019-03-30T18:05:44.745Z,45.90
2019-03-30T18:08:15.210Z,45.80
2019-03-30T18:10:47.714Z,46.00
2019-03-30T18:13:17.676Z,46.10
2019-03-30T18:15:47.794Z,46.50
2019-03-30T18:18:17.742Z,46.60
2019-03-30T18:20:49.980Z,46.80
2019-03-30T18:23:19.810Z,47.10
2019-03-30T18:25:49.873Z,47.00
2019-03-30T18:28:26.935Z,47.10
2019-03-30T18:30:52.625Z,47.40
2019-03-30T18:33:22.830Z,47.40
2019-03-30T18:35:53.289Z,48.10
2019-03-30T18:38:24.743Z,47.70
2019-03-30T18:40:54.866Z,47.60
2019-03-30T18:43:26.137Z,47.70
2019-03-30T18:45:56.245Z,48.00
2019-03-30T18:48:27.079Z,48.10
2019-03-30T18:50:57.527Z,48.10
2019-03-30T18:53:27.529Z,48.10
2019-03-30T18:55:57.480Z,48.30
2019-03-30T18:58:40.750Z,48.60
2019-03-30T19:01:01.453Z,48.60
2019-03-30T19:03:32.713Z,49.00
2019-03-30T19:06:03.222Z,49.50
2019-03-30T19:08:34.705Z,49.80
2019-03-30T19:11:05.714Z,50.20
2019-03-30T19:13:39.990Z,50.60
2019-03-30T19:16:09.991Z,50.90
2019-03-30T19:18:39.997Z,51.20
2019-03-30T19:21:10.784Z,51.70
2019-03-30T19:23:41.580Z,51.90
2019-03-30T19:26:11.717Z,52.00
2019-03-30T19:28:55.308Z,52.30
2019-03-30T19:31:13.661Z,52.50
2019-03-30T19:33:43.647Z,52.60
2019-03-30T19:36:13.631Z,53.50
2019-03-30T19:38:43.521Z,53.30
2019-03-30T19:41:13.589Z,54.50
2019-03-30T19:43:43.505Z,55.00
2019-03-30T19:46:13.473Z,55.70
2019-03-30T19:48:43.649Z,57.20
2019-03-30T19:51:13.692Z,58.80
2019-03-30T19:53:43.643Z,59.20
2019-03-30T19:56:13.498Z,60.50
2019-03-30T19:58:43.419Z,61.00
2019-03-30T20:01:15.214Z,62.20
2019-03-30T20:03:45.091Z,63.60
2019-03-30T20:06:14.963Z,64.20
2019-03-30T20:08:45.026Z,65.10
2019-03-30T20:11:14.864Z,65.70
2019-03-30T20:13:44.836Z,66.20
2019-03-30T20:16:14.758Z,67.20
2019-03-30T20:18:44.747Z,68.10
2019-03-30T20:21:14.573Z,68.40
2019-03-30T20:23:44.672Z,68.90
2019-03-30T20:26:21.962Z,69.50
2019-03-30T20:28:51.813Z,69.60
2019-03-30T20:31:21.827Z,70.70
2019-03-30T20:33:51.815Z,70.90
2019-03-30T20:36:21.899Z,70.90
2019-03-30T20:38:51.745Z,71.80
2019-03-30T20:41:21.714Z,72.20
2019-03-30T20:43:53.090Z,72.50
2019-03-30T20:46:23.194Z,72.80
2019-03-30T20:48:53.081Z,73.10
2019-03-30T20:51:23.055Z,73.20
2019-03-30T20:53:52.897Z,73.80
2019-03-30T20:56:22.812Z,73.90
2019-03-30T20:58:52.667Z,74.30
2019-03-30T21:01:22.740Z,74.40
2019-03-30T21:03:52.703Z,74.70
2019-03-30T21:06:22.786Z,74.80
2019-03-30T21:08:52.779Z,75.20
2019-03-30T21:11:22.634Z,75.60
2019-03-30T21:13:52.583Z,75.80
2019-03-30T21:16:22.476Z,76.50
2019-03-30T21:18:52.532Z,76.60
2019-03-30T21:21:24.757Z,76.40
2019-03-30T21:23:54.717Z,77.20
2019-03-30T21:26:28.650Z,76.30
2019-03-30T21:28:58.219Z,76.50
2019-03-30T21:31:28.610Z,76.30
2019-03-30T21:33:58.901Z,76.80
2019-03-30T21:36:28.761Z,76.90
2019-03-30T21:38:58.818Z,77.20
2019-03-30T21:41:29.102Z,77.10
2019-03-30T21:44:00.442Z,77.50
2019-03-30T21:46:30.253Z,78.30
2019-03-30T21:49:00.299Z,78.00
2019-03-30T21:51:30.175Z,77.50
2019-03-30T21:54:00.167Z,77.50
2019-03-30T21:56:30.061Z,78.00
2019-03-30T21:58:59.954Z,78.20
2019-03-30T22:01:30.035Z,78.40
2019-03-30T22:03:59.964Z,78.60
2019-03-30T22:06:29.917Z,78.70
2019-03-30T22:08:59.846Z,79.00
2019-03-30T22:11:29.849Z,79.50
2019-03-30T22:13:59.705Z,79.50
2019-03-30T22:16:29.870Z,79.80
2019-03-30T22:18:59.683Z,79.80
2019-03-30T22:21:29.711Z,79.80
2019-03-30T22:24:00.128Z,79.70
2019-03-30T22:26:30.306Z,80.00
2019-03-30T22:29:00.305Z,80.30
2019-03-30T22:31:30.283Z,80.00
2019-03-30T22:34:01.678Z,80.00
2019-03-30T22:36:31.561Z,80.00
2019-03-30T22:39:01.477Z,80.50
2019-03-30T22:41:31.720Z,80.90
2019-03-30T22:44:01.642Z,80.60
2019-03-30T22:46:34.635Z,80.90
2019-03-30T22:49:04.499Z,81.00
2019-03-30T22:51:34.591Z,81.00
2019-03-30T22:54:04.431Z,80.70
2019-03-30T22:56:34.590Z,80.60
2019-03-30T22:59:04.445Z,80.90
2019-03-30T23:01:34.480Z,81.30
2019-03-30T23:04:04.654Z,81.30
2019-03-30T23:06:35.062Z,81.20
2019-03-30T23:09:06.469Z,80.80
2019-03-30T23:11:36.686Z,80.80
2019-03-30T23:14:06.550Z,80.90
2019-03-30T23:16:36.545Z,81.00
2019-03-30T23:19:06.381Z,81.00
2019-03-30T23:21:36.516Z,81.40
2019-03-30T23:24:06.414Z,81.40
2019-03-30T23:26:38.598Z,81.30
2019-03-30T23:29:09.700Z,81.60
2019-03-30T23:31:39.737Z,81.10
2019-03-30T23:34:10.024Z,81.20
2019-03-30T23:36:39.925Z,81.30
2019-03-30T23:39:09.842Z,81.20
2019-03-30T23:41:39.793Z,81.40
2019-03-30T23:44:09.711Z,81.10
2019-03-30T23:46:40.410Z,81.00
2019-03-30T23:49:10.176Z,81.00
2019-03-30T23:51:40.145Z,81.00
2019-03-30T23:54:17.910Z,80.90
2019-03-30T23:56:53.063Z,81.00
2019-03-30T23:59:22.871Z,81.00
